createdAt,value
2023-01-19T00:01:50.272Z,99050.38
2023-01-19T00:04:16.585Z,99059.94
2023-01-19T00:06:42.887Z,99058.59
2023-01-19T00:09:09.222Z,99065.03
2023-01-19T00:11:35.656Z,99065.88
2023-01-19T00:14:02.320Z,99069.88
2023-01-19T00:16:28.760Z,99070.19
2023-01-19T00:18:55.095Z,99077.47
2023-01-19T00:21:21.937Z,99071.53
2023-01-19T00:23:48.793Z,99072.88
2023-01-19T00:26:16.130Z,99071.28
2023-01-19T00:28:43.571Z,99063.63
2023-01-19T00:31:10.366Z,99055.84
2023-01-19T00:33:36.784Z,99062.25
2023-01-19T00:36:03.928Z,99073.69
2023-01-19T00:38:30.536Z,99069.44
2023-01-19T00:40:56.851Z,99075.03
2023-01-19T00:43:23.180Z,99066.00
2023-01-19T00:45:49.520Z,99072.44
2023-01-19T00:48:15.883Z,99069.53
2023-01-19T00:50:42.603Z,99069.25
2023-01-19T00:53:09.543Z,99064.47
2023-01-19T00:55:38.723Z,99063.66
2023-01-19T00:58:05.030Z,99059.13
2023-01-19T01:00:31.337Z,99062.34
2023-01-19T01:02:57.838Z,99048.69
2023-01-19T01:05:24.502Z,99047.06
2023-01-19T01:07:50.992Z,99046.00
2023-01-19T01:10:21.122Z,99062.22
2023-01-19T01:13:20.604Z,99077.78
2023-01-19T01:15:34.360Z,99072.19
2023-01-19T01:18:00.949Z,99063.13
2023-01-19T01:20:28.275Z,99073.84
2023-01-19T01:22:55.397Z,99066.63
2023-01-19T01:25:23.869Z,99070.38
2023-01-19T01:27:50.396Z,99076.75
2023-01-19T01:30:17.635Z,99079.72
2023-01-19T01:32:44.006Z,99077.06
2023-01-19T01:35:12.069Z,99083.22
2023-01-19T01:37:38.971Z,99078.13
2023-01-19T01:40:06.724Z,99088.56
2023-01-19T01:42:33.725Z,99086.44
2023-01-19T01:45:03.526Z,99098.47
2023-01-19T01:47:36.474Z,99080.28
2023-01-19T01:50:12.596Z,99089.09
2023-01-19T01:52:44.903Z,99087.47
2023-01-19T01:55:32.559Z,99088.28
2023-01-19T01:58:04.114Z,99085.09
2023-01-19T02:00:31.334Z,99083.47
2023-01-19T02:02:58.534Z,99084.81
2023-01-19T02:05:33.183Z,99085.63
2023-01-19T02:08:07.753Z,99101.13
2023-01-19T02:10:34.045Z,99082.69
2023-01-19T02:13:00.959Z,99083.75
2023-01-19T02:15:27.469Z,99074.69
2023-01-19T02:17:53.821Z,99078.16
2023-01-19T02:20:24.955Z,99081.38
2023-01-19T02:22:52.239Z,99085.94
2023-01-19T02:25:19.931Z,99077.38
2023-01-19T02:27:47.773Z,99074.16
2023-01-19T02:30:14.999Z,99073.63
2023-01-19T02:32:41.372Z,99074.19
2023-01-19T02:35:08.089Z,99063.22
2023-01-19T02:37:37.037Z,99067.75
2023-01-19T02:40:06.222Z,99064.56
2023-01-19T02:42:37.818Z,99066.69
2023-01-19T02:45:05.268Z,99069.09
2023-01-19T02:47:38.644Z,99061.63
2023-01-19T02:50:36.370Z,99070.16
2023-01-19T02:53:32.497Z,99074.72
2023-01-19T02:56:04.794Z,99072.03
2023-01-19T02:58:44.925Z,99071.75
2023-01-19T03:01:21.568Z,99062.16
2023-01-19T03:04:02.187Z,99064.00
2023-01-19T03:06:44.199Z,99059.47
2023-01-19T03:09:33.859Z,99061.06
2023-01-19T03:12:08.723Z,99061.91
2023-01-19T03:14:40.456Z,99059.75
2023-01-19T03:17:09.605Z,99053.88
2023-01-19T03:19:44.815Z,99057.06
2023-01-19T03:22:14.847Z,99053.88
2023-01-19T03:24:44.934Z,99044.78
2023-01-19T03:27:29.024Z,99049.84
2023-01-19T03:30:01.953Z,99059.22
2023-01-19T03:32:34.295Z,99055.22
2023-01-19T03:35:03.691Z,99058.94
2023-01-19T03:37:31.606Z,99056.56
2023-01-19T03:39:58.127Z,99065.63
2023-01-19T03:42:27.009Z,99061.38
2023-01-19T03:44:55.180Z,99055.19
2023-01-19T03:47:23.296Z,99061.88
2023-01-19T03:49:52.406Z,99058.94
2023-01-19T03:52:27.205Z,99061.38
2023-01-19T03:54:53.508Z,99060.53
2023-01-19T03:57:19.850Z,99054.13
2023-01-19T03:59:46.147Z,99056.28
2023-01-19T04:02:12.505Z,99054.94
2023-01-19T04:04:38.923Z,99044.25
2023-01-19T04:07:05.228Z,99042.63
2023-01-19T04:09:31.539Z,99042.09
2023-01-19T04:11:57.828Z,99043.72
2023-01-19T04:14:24.124Z,99045.59
2023-01-19T04:16:50.419Z,99043.72
2023-01-19T04:19:16.724Z,99037.28
2023-01-19T04:21:43.016Z,99035.16
2023-01-19T04:24:10.573Z,99036.75
2023-01-19T04:26:36.861Z,99045.84
2023-01-19T04:29:03.289Z,99039.41
2023-01-19T04:31:29.743Z,99036.75
2023-01-19T04:33:56.147Z,99045.84
2023-01-19T04:36:22.504Z,99043.69
2023-01-19T04:38:48.873Z,99039.91
2023-01-19T04:41:15.234Z,99039.13
2023-01-19T04:43:41.563Z,99040.47
2023-01-19T04:46:07.971Z,99037.78
2023-01-19T04:48:34.372Z,99036.44
2023-01-19T04:51:00.670Z,99035.91
2023-01-19T04:53:26.981Z,99034.03
2023-01-19T04:55:56.073Z,99024.41
2023-01-19T04:58:22.669Z,99029.50
2023-01-19T05:00:49.100Z,99029.75
2023-01-19T05:03:15.500Z,99032.16
2023-01-19T05:05:41.861Z,99037.00
2023-01-19T05:08:08.180Z,99031.91
2023-01-19T05:10:34.471Z,99026.84
2023-01-19T05:13:01.165Z,99031.91
2023-01-19T05:15:27.709Z,99034.56
2023-01-19T05:17:54.028Z,99040.22
2023-01-19T05:20:20.324Z,99034.88
2023-01-19T05:22:51.090Z,99042.59
2023-01-19T05:25:18.375Z,99032.44
2023-01-19T05:27:45.162Z,99033.50
2023-01-19T05:30:13.078Z,99025.47
2023-01-19T05:32:39.750Z,99030.81
2023-01-19T05:35:06.673Z,99025.47
2023-01-19T05:37:33.051Z,99024.91
2023-01-19T05:39:59.620Z,99023.81
2023-01-19T05:42:25.944Z,99033.47
2023-01-19T05:44:54.562Z,99026.00
2023-01-19T05:47:20.967Z,99023.31
2023-01-19T05:49:47.286Z,99024.91
2023-01-19T05:52:13.700Z,99019.03
2023-01-19T05:54:40.012Z,99022.22
2023-01-19T05:57:07.028Z,99019.00
2023-01-19T05:59:33.463Z,99014.75
2023-01-19T06:01:59.817Z,99016.34
2023-01-19T06:04:26.171Z,99017.13
2023-01-19T06:06:52.504Z,99006.47
2023-01-19T06:09:19.037Z,99013.97
2023-01-19T06:11:46.320Z,99020.09
2023-01-19T06:14:13.270Z,99023.63
2023-01-19T06:16:39.955Z,99026.53
2023-01-19T06:19:06.455Z,99033.78
2023-01-19T06:21:33.695Z,99037.25
2023-01-19T06:24:00.168Z,99032.72
2023-01-19T06:26:26.516Z,99032.97
2023-01-19T06:28:52.850Z,99035.66
2023-01-19T06:31:19.250Z,99043.41
2023-01-19T06:33:45.594Z,99041.53
2023-01-19T06:36:11.897Z,99036.69
2023-01-19T06:38:38.279Z,99040.47
2023-01-19T06:41:04.727Z,99034.06
2023-01-19T06:43:31.578Z,99036.75
2023-01-19T06:45:58.394Z,99037.81
2023-01-19T06:48:24.720Z,99042.38
2023-01-19T06:50:51.031Z,99049.06
2023-01-19T06:53:17.928Z,99050.13
2023-01-19T06:55:44.308Z,99058.41
2023-01-19T06:58:11.660Z,99054.41
2023-01-19T07:00:38.310Z,99058.41
2023-01-19T07:03:08.446Z,99061.34
2023-01-19T07:05:36.046Z,99068.81
2023-01-19T07:08:02.565Z,99062.69
2023-01-19T07:11:25.160Z,99064.56
2023-01-19T07:13:15.772Z,99065.91
2023-01-19T07:15:42.106Z,99075.53
2023-01-19T07:18:08.592Z,99074.72
2023-01-19T07:20:36.000Z,99091.81
2023-01-19T07:23:02.777Z,99088.84
2023-01-19T07:25:29.944Z,99095.28
2023-01-19T07:27:58.371Z,99104.09
2023-01-19T07:30:24.747Z,99099.28
2023-01-19T07:32:51.058Z,99106.19
2023-01-19T07:35:17.350Z,99104.34
2023-01-19T07:37:43.641Z,99117.44
2023-01-19T07:40:10.677Z,99114.19
2023-01-19T07:42:36.980Z,99117.44
2023-01-19T07:45:03.493Z,99117.69
2023-01-19T07:47:29.861Z,99120.59
2023-01-19T07:49:56.166Z,99127.84
2023-01-19T07:52:22.621Z,99125.16
2023-01-19T07:54:48.979Z,99130.78
2023-01-19T07:57:15.280Z,99137.19
2023-01-19T07:59:41.579Z,99132.13
2023-01-19T08:02:10.560Z,99135.59
2023-01-19T08:04:37.017Z,99143.03
2023-01-19T08:07:03.416Z,99146.53
2023-01-19T08:09:29.721Z,99150.00
2023-01-19T08:11:56.023Z,99147.34
2023-01-19T08:14:22.352Z,99148.38
2023-01-19T08:16:48.662Z,99158.53
2023-01-19T08:19:14.955Z,99166.56
2023-01-19T08:21:41.279Z,99166.84
2023-01-19T08:24:18.170Z,99167.13
2023-01-19T08:26:44.522Z,99165.50
2023-01-19T08:29:10.814Z,99183.41
2023-01-19T08:31:37.178Z,99179.41
2023-01-19T08:34:03.550Z,99181.28
2023-01-19T08:36:29.848Z,99189.56
2023-01-19T08:38:56.239Z,99190.91
2023-01-19T08:41:22.600Z,99192.22
2023-01-19T08:43:49.344Z,99195.19
2023-01-19T08:46:16.029Z,99195.19
2023-01-19T08:48:42.395Z,99204.22
2023-01-19T08:51:08.693Z,99208.22
2023-01-19T08:53:34.986Z,99214.09
2023-01-19T08:56:01.342Z,99210.31
2023-01-19T08:58:28.006Z,99220.56
2023-01-19T09:00:54.863Z,99220.06
2023-01-19T09:03:21.568Z,99219.56
2023-01-19T09:05:48.317Z,99219.03
2023-01-19T09:08:15.707Z,99234.00
2023-01-19T09:10:50.022Z,99238.28
2023-01-19T09:13:17.654Z,99243.59
2023-01-19T09:15:45.287Z,99239.88
2023-01-19T09:18:14.856Z,99247.88
2023-01-19T09:20:42.505Z,99252.72
2023-01-19T09:23:10.295Z,99252.69
2023-01-19T09:25:38.051Z,99254.03
2023-01-19T09:28:08.948Z,99253.22
2023-01-19T09:30:40.102Z,99257.53
2023-01-19T09:33:09.547Z,99253.28
2023-01-19T09:35:36.617Z,99262.41
2023-01-19T09:38:03.627Z,99258.97
2023-01-19T09:40:30.535Z,99268.31
2023-01-19T09:43:11.676Z,99263.78
2023-01-19T09:45:56.442Z,99264.84
2023-01-19T09:48:28.622Z,99269.97
2023-01-19T09:50:59.379Z,99271.00
2023-01-19T09:53:39.368Z,99269.41
2023-01-19T09:56:10.765Z,99283.34
2023-01-19T09:58:37.063Z,99281.19
2023-01-19T10:01:15.393Z,99290.00
2023-01-19T10:03:41.765Z,99287.59
2023-01-19T10:06:14.200Z,99297.25
2023-01-19T10:09:14.762Z,99299.38
2023-01-19T10:11:52.984Z,99293.50
2023-01-19T10:14:36.385Z,99306.91
2023-01-19T10:17:21.195Z,99299.94
2023-01-19T10:19:53.737Z,99309.03
2023-01-19T10:22:22.915Z,99311.72
2023-01-19T10:24:54.626Z,99309.56
2023-01-19T10:27:26.352Z,99322.41
2023-01-19T10:29:52.687Z,99322.66
2023-01-19T10:32:25.009Z,99326.13
2023-01-19T10:34:52.838Z,99314.06
2023-01-19T10:37:39.755Z,99324.75
2023-01-19T10:40:09.155Z,99323.16
2023-01-19T10:42:37.149Z,99326.91
2023-01-19T10:45:04.368Z,99328.78
2023-01-19T10:47:35.068Z,99326.94
2023-01-19T10:50:23.089Z,99326.94
2023-01-19T10:52:51.429Z,99332.06
2023-01-19T10:55:31.229Z,99339.53
2023-01-19T10:57:59.110Z,99334.19
2023-01-19T11:00:31.549Z,99338.16
2023-01-19T11:02:57.887Z,99341.59
2023-01-19T11:05:30.171Z,99345.31
2023-01-19T11:07:56.997Z,99355.16
2023-01-19T11:10:25.975Z,99350.63
2023-01-19T11:13:03.208Z,99352.19
2023-01-19T11:15:33.062Z,99351.47
2023-01-19T11:17:59.808Z,99351.50
2023-01-19T11:20:29.934Z,99356.88
2023-01-19T11:23:22.189Z,99353.97
2023-01-19T11:25:50.092Z,99358.81
2023-01-19T11:28:32.715Z,99350.00
2023-01-19T11:31:01.615Z,99354.56
2023-01-19T11:33:37.774Z,99353.47
2023-01-19T11:36:15.711Z,99354.53
2023-01-19T11:38:44.836Z,99357.22
2023-01-19T11:41:32.773Z,99362.06
2023-01-19T11:44:20.842Z,99360.97
2023-01-19T11:46:52.047Z,99359.09
2023-01-19T11:49:25.988Z,99360.69
2023-01-19T11:52:02.607Z,99365.25
2023-01-19T11:54:34.673Z,99370.59
2023-01-19T11:57:10.412Z,99368.41
2023-01-19T11:59:36.931Z,99372.69
2023-01-19T12:02:16.863Z,99374.81
2023-01-19T12:04:44.952Z,99371.53
2023-01-19T12:07:13.011Z,99372.81
2023-01-19T12:09:45.527Z,99377.91
2023-01-19T12:12:39.107Z,99378.38
2023-01-19T12:15:14.973Z,99374.81
2023-01-19T12:17:48.402Z,99380.59
2023-01-19T12:20:27.816Z,99375.22
2023-01-19T12:23:18.975Z,99374.97
2023-01-19T12:26:15.855Z,99374.72
2023-01-19T12:28:47.275Z,99377.13
2023-01-19T12:31:18.683Z,99382.22
2023-01-19T12:33:45.189Z,99386.31
2023-01-19T12:36:26.564Z,99377.03
2023-01-19T12:39:08.211Z,99387.06
2023-01-19T12:41:39.563Z,99394.56
2023-01-19T12:44:11.997Z,99401.88
2023-01-19T12:46:42.017Z,99405.41
2023-01-19T12:49:36.971Z,99410.78
2023-01-19T12:52:26.237Z,99411.31
2023-01-19T12:55:00.030Z,99409.69
2023-01-19T12:57:48.596Z,99416.16
2023-01-19T13:00:24.067Z,99416.94
2023-01-19T13:02:59.403Z,99427.91
2023-01-19T13:05:32.839Z,99425.53
2023-01-19T13:08:02.390Z,99425.81
2023-01-19T13:10:53.628Z,99425.28
2023-01-19T13:13:25.538Z,99432.22
2023-01-19T13:15:55.452Z,99436.00
2023-01-19T13:18:24.551Z,99441.88
2023-01-19T13:20:56.878Z,99441.88
2023-01-19T13:23:26.024Z,99439.13
2023-01-19T13:25:59.893Z,99438.50
2023-01-19T13:28:42.283Z,99440.78
2023-01-19T13:31:09.324Z,99435.66
2023-01-19T13:33:55.977Z,99432.34
2023-01-19T13:36:35.159Z,99433.97
2023-01-19T13:39:07.761Z,99441.72
2023-01-19T13:41:40.167Z,99441.53
2023-01-19T13:44:13.643Z,99439.41
2023-01-19T13:46:40.855Z,99450.25
2023-01-19T13:49:18.955Z,99450.56
2023-01-19T13:51:45.386Z,99460.22
2023-01-19T13:54:16.472Z,99455.94
2023-01-19T13:56:48.004Z,99469.66
2023-01-19T13:59:14.331Z,99478.53
2023-01-19T14:01:43.501Z,99472.63
2023-01-19T14:04:33.136Z,99485.75
2023-01-19T14:07:05.858Z,99487.94
2023-01-19T14:09:32.261Z,99500.00
2023-01-19T14:12:16.762Z,99494.91
2023-01-19T14:14:45.634Z,99496.72
2023-01-19T14:17:29.173Z,99498.56
2023-01-19T14:19:59.799Z,99498.06
2023-01-19T14:22:41.743Z,99506.16
2023-01-19T14:25:33.976Z,99507.75
2023-01-19T14:28:43.815Z,99501.34
2023-01-19T14:31:24.837Z,99515.84
2023-01-19T14:33:56.265Z,99512.63
2023-01-19T14:36:26.474Z,99521.69
2023-01-19T14:38:55.877Z,99515.47
2023-01-19T14:41:30.192Z,99520.53
2023-01-19T14:43:57.481Z,99527.00
2023-01-19T14:46:24.744Z,99530.19
2023-01-19T14:48:55.838Z,99538.75
2023-01-19T14:51:24.270Z,99541.97
2023-01-19T14:53:54.320Z,99542.44
2023-01-19T14:56:29.417Z,99541.38
2023-01-19T14:59:01.496Z,99545.56
2023-01-19T15:01:28.762Z,99549.78
2023-01-19T15:03:55.584Z,99545.72
2023-01-19T15:06:23.466Z,99551.59
2023-01-19T15:08:50.767Z,99551.28
2023-01-19T15:11:40.485Z,99558.69
2023-01-19T15:14:06.923Z,99560.25
2023-01-19T15:16:34.634Z,99563.88
2023-01-19T15:19:01.018Z,99567.13
2023-01-19T15:21:27.359Z,99564.47
2023-01-19T15:23:54.434Z,99569.53
2023-01-19T15:26:24.773Z,99578.28
2023-01-19T15:28:51.778Z,99578.47
2023-01-19T15:31:20.688Z,99577.72
2023-01-19T15:33:47.585Z,99589.72
2023-01-19T15:36:19.813Z,99585.09
2023-01-19T15:38:46.854Z,99581.38
2023-01-19T15:41:23.449Z,99585.13
2023-01-19T15:43:51.159Z,99589.16
2023-01-19T15:46:20.968Z,99588.53
2023-01-19T15:48:48.155Z,99591.84
2023-01-19T15:51:16.873Z,99594.59
2023-01-19T15:53:44.028Z,99592.56
2023-01-19T15:56:16.356Z,99591.22
2023-01-19T15:58:43.652Z,99589.56
2023-01-19T16:01:14.292Z,99596.59
2023-01-19T16:03:42.151Z,99600.41
2023-01-19T16:06:10.577Z,99608.25
2023-01-19T16:08:38.536Z,99607.69
2023-01-19T16:11:11.717Z,99610.44
2023-01-19T16:13:38.706Z,99613.13
2023-01-19T16:16:16.152Z,99617.78
2023-01-19T16:18:43.555Z,99615.25
2023-01-19T16:21:10.128Z,99618.72
2023-01-19T16:23:36.432Z,99613.94
2023-01-19T16:26:07.080Z,99615.84
2023-01-19T16:28:35.379Z,99624.13
2023-01-19T16:31:01.688Z,99633.47
2023-01-19T16:33:28.003Z,99629.34
2023-01-19T16:35:54.324Z,99629.47
2023-01-19T16:38:22.663Z,99639.25
2023-01-19T16:40:49.118Z,99641.34
2023-01-19T16:43:15.469Z,99641.88
2023-01-19T16:46:02.533Z,99647.28
2023-01-19T16:48:28.990Z,99640.34
2023-01-19T16:51:05.948Z,99641.94
2023-01-19T16:53:33.930Z,99650.53
2023-01-19T16:56:21.790Z,99652.69
2023-01-19T16:58:48.133Z,99662.44
2023-01-19T17:01:19.661Z,99677.78
2023-01-19T17:03:46.510Z,99670.31
2023-01-19T17:06:15.115Z,99674.00
2023-01-19T17:08:41.534Z,99674.03
2023-01-19T17:11:13.905Z,99673.94
2023-01-19T17:13:40.267Z,99672.00
2023-01-19T17:16:07.252Z,99678.66
2023-01-19T17:18:35.531Z,99683.84
2023-01-19T17:21:04.666Z,99695.31
2023-01-19T17:23:31.299Z,99679.78
2023-01-19T17:25:58.753Z,99687.38
2023-01-19T17:28:25.902Z,99686.25
2023-01-19T17:30:52.786Z,99686.44
2023-01-19T17:33:24.082Z,99697.03
2023-01-19T17:35:50.557Z,99688.41
2023-01-19T17:38:17.134Z,99692.88
2023-01-19T17:40:43.423Z,99692.50
2023-01-19T17:43:09.739Z,99697.91
2023-01-19T17:45:36.880Z,99698.81
2023-01-19T17:48:04.539Z,99702.69
2023-01-19T17:50:32.882Z,99697.81
2023-01-19T17:52:59.197Z,99708.22
2023-01-19T17:55:25.567Z,99715.75
2023-01-19T17:57:51.906Z,99717.94
2023-01-19T18:00:18.740Z,99708.84
2023-01-19T18:02:45.109Z,99719.69
2023-01-19T18:05:11.889Z,99715.34
2023-01-19T18:07:39.291Z,99717.66
2023-01-19T18:10:07.391Z,99715.19
2023-01-19T18:12:34.120Z,99715.63
2023-01-19T18:15:00.425Z,99719.84
2023-01-19T18:17:26.743Z,99713.69
2023-01-19T18:19:53.061Z,99725.25
2023-01-19T18:22:19.363Z,99727.28
2023-01-19T18:24:45.664Z,99724.50
2023-01-19T18:27:12.014Z,99720.66
2023-01-19T18:29:38.362Z,99720.34
2023-01-19T18:32:04.980Z,99733.63
2023-01-19T18:34:31.345Z,99728.28
2023-01-19T18:36:57.647Z,99728.69
2023-01-19T18:39:24.025Z,99733.66
2023-01-19T18:41:50.347Z,99732.34
2023-01-19T18:44:16.647Z,99730.81
2023-01-19T18:46:42.976Z,99731.75
2023-01-19T18:49:09.344Z,99732.19
2023-01-19T18:51:35.888Z,99730.34
2023-01-19T18:54:02.238Z,99732.94
2023-01-19T18:56:28.533Z,99738.81
2023-01-19T18:58:54.966Z,99739.06
2023-01-19T19:01:27.346Z,99734.47
2023-01-19T19:03:55.491Z,99738.81
2023-01-19T19:06:23.150Z,99732.44
2023-01-19T19:08:51.435Z,99745.78
2023-01-19T19:11:24.616Z,99738.47
2023-01-19T19:13:56.064Z,99746.41
2023-01-19T19:16:22.869Z,99754.97
2023-01-19T19:18:49.351Z,99756.59
2023-01-19T19:21:17.159Z,99761.50
2023-01-19T19:23:43.535Z,99764.81
2023-01-19T19:26:12.072Z,99764.94
2023-01-19T19:28:40.155Z,99765.63
2023-01-19T19:31:12.721Z,99767.31
2023-01-19T19:33:39.714Z,99761.47
2023-01-19T19:36:08.058Z,99769.88
2023-01-19T19:38:34.941Z,99765.81
2023-01-19T19:41:05.380Z,99768.44
2023-01-19T19:43:32.683Z,99770.66
2023-01-19T19:46:02.936Z,99774.38
2023-01-19T19:48:29.315Z,99784.03
2023-01-19T19:50:57.530Z,99786.06
2023-01-19T19:53:26.569Z,99787.72
2023-01-19T19:56:02.754Z,99789.66
2023-01-19T19:58:29.621Z,99797.38
2023-01-19T20:00:56.512Z,99794.97
2023-01-19T20:03:26.140Z,99800.34
2023-01-19T20:05:52.849Z,99804.59
2023-01-19T20:08:19.264Z,99799.75
2023-01-19T20:10:45.542Z,99802.00
2023-01-19T20:13:11.840Z,99811.53
2023-01-19T20:15:38.933Z,99807.41
2023-01-19T20:18:06.178Z,99816.09
2023-01-19T20:20:33.458Z,99815.84
2023-01-19T20:23:00.961Z,99818.56
2023-01-19T20:25:28.227Z,99819.78
2023-01-19T20:27:55.383Z,99819.94
2023-01-19T20:30:23.797Z,99822.31
2023-01-19T20:32:50.126Z,99820.06
2023-01-19T20:35:16.447Z,99825.41
2023-01-19T20:37:42.741Z,99825.53
2023-01-19T20:40:09.565Z,99833.75
2023-01-19T20:42:35.967Z,99842.28
2023-01-19T20:45:03.287Z,99839.84
2023-01-19T20:47:29.630Z,99845.66
2023-01-19T20:49:55.912Z,99848.09
2023-01-19T20:52:22.211Z,99839.53
2023-01-19T20:54:48.516Z,99849.59
2023-01-19T20:57:14.867Z,99846.66
2023-01-19T20:59:41.179Z,99850.97
2023-01-19T21:02:07.536Z,99859.16
2023-01-19T21:04:33.912Z,99860.91
2023-01-19T21:07:00.222Z,99859.41
2023-01-19T21:09:26.520Z,99863.16
2023-01-19T21:11:52.812Z,99867.81
2023-01-19T21:14:19.108Z,99879.19
2023-01-19T21:16:45.514Z,99875.44
2023-01-19T21:19:11.845Z,99885.91
2023-01-19T21:21:38.195Z,99878.63
2023-01-19T21:24:05.207Z,99881.78
2023-01-19T21:26:31.655Z,99883.75
2023-01-19T21:28:59.142Z,99883.94
2023-01-19T21:31:27.687Z,99892.69
2023-01-19T21:33:55.108Z,99896.91
2023-01-19T21:36:21.530Z,99895.63
2023-01-19T21:38:48.198Z,99894.31
2023-01-19T21:41:14.812Z,99898.84
2023-01-19T21:43:41.121Z,99904.56
2023-01-19T21:46:19.852Z,99906.63
2023-01-19T21:48:46.742Z,99905.50
2023-01-19T21:51:14.279Z,99910.66
2023-01-19T21:53:41.052Z,99913.03
2023-01-19T21:56:09.403Z,99912.13
2023-01-19T21:58:35.922Z,99920.31
2023-01-19T22:01:07.864Z,99916.41
2023-01-19T22:03:34.272Z,99923.53
2023-01-19T22:06:05.442Z,99920.88
2023-01-19T22:08:32.091Z,99931.16
2023-01-19T22:11:09.815Z,99932.22
2023-01-19T22:13:37.072Z,99934.41
2023-01-19T22:16:05.487Z,99934.81
2023-01-19T22:18:31.805Z,99946.59
2023-01-19T22:21:07.775Z,99940.28
2023-01-19T22:23:34.237Z,99949.47
2023-01-19T22:26:00.608Z,99942.91
2023-01-19T22:28:29.909Z,99948.31
2023-01-19T22:31:03.412Z,99958.09
2023-01-19T22:33:29.813Z,99951.63
2023-01-19T22:36:08.884Z,99957.38
2023-01-19T22:38:35.192Z,99955.03
2023-01-19T22:41:01.557Z,99956.81
2023-01-19T22:43:27.877Z,99958.28
2023-01-19T22:45:54.194Z,99969.44
2023-01-19T22:48:20.500Z,99968.06
2023-01-19T22:50:46.787Z,99966.38
2023-01-19T22:53:13.102Z,99965.00
2023-01-19T22:55:39.406Z,99974.00
2023-01-19T22:58:05.730Z,99971.41
2023-01-19T23:00:32.049Z,99970.44
2023-01-19T23:02:58.363Z,99967.50
2023-01-19T23:05:24.663Z,99965.88
2023-01-19T23:07:51.088Z,99968.16
2023-01-19T23:10:17.454Z,99968.16
2023-01-19T23:12:43.760Z,99966.53
2023-01-19T23:15:10.412Z,99969.75
2023-01-19T23:17:36.721Z,99970.09
2023-01-19T23:20:04.032Z,99972.25
2023-01-19T23:22:30.799Z,99976.41
2023-01-19T23:24:57.104Z,99970.44
2023-01-19T23:27:23.451Z,99977.22
2023-01-19T23:29:49.755Z,99969.28
2023-01-19T23:32:16.633Z,99975.13
2023-01-19T23:34:43.027Z,99979.34
2023-01-19T23:37:10.232Z,99983.44
2023-01-19T23:39:36.981Z,99985.78
2023-01-19T23:42:05.202Z,99985.72
2023-01-19T23:44:31.516Z,99991.53
2023-01-19T23:46:58.092Z,99995.28
2023-01-19T23:49:24.672Z,99990.91
2023-01-19T23:51:51.000Z,99989.94
2023-01-19T23:54:17.592Z,99990.50
2023-01-19T23:56:44.656Z,99991.63
2023-01-19T23:59:13.507Z,99996.88
